createdAt,value
2022-11-17T00:00:34.903Z,10.35
2022-11-17T00:03:02.708Z,10.20
2022-11-17T00:05:30.449Z,11.15
2022-11-17T00:07:58.261Z,12.73
2022-11-17T00:10:26.276Z,14.30
2022-11-17T00:13:09.315Z,11.35
2022-11-17T00:15:36.697Z,12.18
2022-11-17T00:18:19.890Z,12.15
2022-11-17T00:23:45.510Z,11.60
2022-11-17T00:26:16.133Z,9.77
2022-11-17T00:28:43.840Z,16.23
2022-11-17T00:31:28.050Z,11.90
2022-11-17T00:34:11.425Z,11.65
2022-11-17T00:36:42.922Z,10.57
2022-11-17T00:39:11.763Z,13.02
2022-11-17T00:41:39.504Z,10.52
2022-11-17T00:44:08.189Z,11.50
2022-11-17T00:46:37.396Z,10.15
2022-11-17T00:49:06.200Z,13.00
2022-11-17T00:51:34.221Z,11.13
2022-11-17T00:54:02.322Z,13.55
2022-11-17T00:56:29.902Z,11.75
2022-11-17T00:58:57.752Z,12.65
2022-11-17T01:01:28.731Z,10.52
2022-11-17T01:04:03.500Z,10.20
2022-11-17T01:06:36.016Z,11.85
2022-11-17T01:09:07.395Z,12.70
2022-11-17T01:11:35.283Z,10.98
2022-11-17T01:14:03.164Z,9.32
2022-11-17T01:16:31.951Z,9.27
2022-11-17T01:19:01.311Z,10.38
2022-11-17T01:21:31.439Z,9.73
2022-11-17T01:24:00.486Z,10.43
2022-11-17T01:26:31.903Z,11.90
2022-11-17T01:29:00.893Z,8.90
2022-11-17T01:31:35.540Z,10.30
2022-11-17T01:34:03.581Z,10.32
2022-11-17T01:36:52.870Z,11.05
2022-11-17T01:39:20.964Z,11.68
2022-11-17T01:41:48.740Z,10.70
2022-11-17T01:44:49.385Z,10.15
2022-11-17T01:47:22.155Z,11.13
2022-11-17T01:49:52.477Z,9.07
2022-11-17T01:52:20.319Z,10.43
2022-11-17T01:54:49.012Z,12.43
2022-11-17T01:57:25.132Z,8.98
2022-11-17T01:59:59.678Z,11.00
2022-11-17T02:02:27.916Z,14.43
2022-11-17T02:05:10.758Z,9.80
2022-11-17T02:07:42.529Z,11.20
2022-11-17T02:10:11.808Z,11.00
2022-11-17T02:12:40.614Z,11.57
2022-11-17T02:15:08.882Z,10.20
2022-11-17T02:17:39.812Z,10.02
2022-11-17T02:20:14.025Z,10.93
2022-11-17T02:23:12.861Z,9.80
2022-11-17T02:26:09.275Z,10.10
2022-11-17T02:28:40.827Z,9.63
2022-11-17T02:31:25.812Z,13.07
2022-11-17T02:34:11.861Z,9.32
2022-11-17T02:36:56.486Z,12.25
2022-11-17T02:39:35.818Z,8.90
2022-11-17T02:42:50.643Z,11.10
2022-11-17T02:45:24.852Z,11.27
2022-11-17T02:47:57.033Z,13.77
2022-11-17T02:50:28.641Z,12.10
2022-11-17T02:52:57.800Z,11.50
2022-11-17T02:55:27.879Z,7.68
2022-11-17T02:57:56.044Z,10.93
2022-11-17T03:00:24.844Z,9.32
2022-11-17T03:03:27.842Z,10.73
2022-11-17T03:06:22.464Z,11.20
2022-11-17T03:09:10.777Z,10.20
2022-11-17T03:11:48.593Z,13.98
2022-11-17T03:14:36.805Z,9.55
2022-11-17T03:17:13.340Z,10.70
2022-11-17T03:19:47.238Z,11.90
2022-11-17T03:22:25.494Z,16.58
2022-11-17T03:24:59.704Z,11.38
2022-11-17T03:27:33.611Z,12.13
2022-11-17T03:30:07.686Z,10.75
2022-11-17T03:32:40.314Z,11.00
2022-11-17T03:35:14.947Z,11.90
2022-11-17T03:37:50.355Z,12.10
2022-11-17T03:40:25.251Z,12.35
2022-11-17T03:42:58.338Z,12.57
2022-11-17T03:48:08.758Z,12.95
2022-11-17T03:50:45.002Z,16.00
2022-11-17T03:53:14.955Z,16.38
2022-11-17T03:55:58.708Z,13.38
2022-11-17T03:58:31.033Z,12.70
2022-11-17T04:01:00.861Z,20.58
2022-11-17T04:03:32.246Z,16.60
2022-11-17T04:06:01.014Z,20.00
2022-11-17T04:08:30.851Z,14.20
2022-11-17T04:11:14.175Z,16.17
2022-11-17T04:13:57.420Z,28.55
2022-11-17T04:18:58.500Z,14.55
2022-11-17T04:21:26.971Z,16.83
2022-11-17T04:23:54.822Z,16.75
2022-11-17T04:26:37.979Z,15.90
2022-11-17T04:29:05.835Z,17.85
2022-11-17T04:31:33.620Z,15.27
2022-11-17T04:34:03.636Z,17.15
2022-11-17T04:36:34.939Z,15.63
2022-11-17T04:39:02.679Z,16.75
2022-11-17T04:41:46.056Z,13.93
2022-11-17T04:44:15.201Z,16.27
2022-11-17T04:46:45.385Z,21.35
2022-11-17T04:49:17.003Z,21.90
2022-11-17T04:51:45.278Z,21.30
2022-11-17T04:54:14.776Z,24.35
2022-11-17T04:56:42.778Z,25.63
2022-11-17T04:59:10.769Z,24.77
2022-11-17T05:01:38.865Z,26.42
2022-11-17T05:04:08.924Z,25.00
2022-11-17T05:06:40.420Z,26.80
2022-11-17T05:09:10.924Z,25.17
2022-11-17T05:11:53.879Z,24.98
2022-11-17T05:14:23.306Z,25.60
2022-11-17T05:17:10.073Z,23.48
2022-11-17T05:19:44.493Z,26.58
2022-11-17T05:22:29.855Z,25.10
2022-11-17T05:24:57.732Z,25.05
2022-11-17T05:27:26.013Z,24.13
2022-11-17T05:29:54.651Z,26.15
2022-11-17T05:32:22.570Z,25.83
2022-11-17T05:34:50.271Z,27.42
2022-11-17T05:37:18.044Z,22.73
2022-11-17T05:39:45.752Z,24.38
2022-11-17T05:42:13.360Z,26.42
2022-11-17T05:44:41.108Z,28.58
2022-11-17T05:47:08.832Z,26.10
2022-11-17T05:49:36.890Z,27.23
2022-11-17T05:52:05.599Z,31.60
2022-11-17T05:54:33.836Z,28.42
2022-11-17T05:57:11.317Z,26.05
2022-11-17T05:59:48.826Z,27.92
2022-11-17T06:02:24.695Z,27.73
2022-11-17T06:04:52.945Z,27.27
2022-11-17T06:07:21.053Z,29.85
2022-11-17T06:09:48.942Z,30.38
2022-11-17T06:12:16.949Z,28.15
2022-11-17T06:14:44.786Z,29.25
2022-11-17T06:17:23.263Z,31.13
2022-11-17T06:20:02.880Z,31.20
2022-11-17T06:22:32.302Z,30.88
2022-11-17T06:25:01.395Z,31.67
2022-11-17T06:27:35.703Z,28.33
2022-11-17T06:30:05.663Z,28.80
2022-11-17T06:32:36.899Z,31.67
2022-11-17T06:35:07.655Z,33.95
2022-11-17T06:37:35.773Z,30.23
2022-11-17T06:40:03.956Z,35.20
2022-11-17T06:42:47.036Z,28.00
2022-11-17T06:45:14.977Z,27.55
2022-11-17T06:47:42.719Z,33.05
2022-11-17T06:50:11.139Z,30.27
2022-11-17T06:52:39.299Z,38.72
2022-11-17T06:55:07.798Z,41.03
2022-11-17T06:57:35.833Z,42.90
2022-11-17T07:00:04.664Z,33.97
2022-11-17T07:02:33.692Z,23.55
2022-11-17T07:05:01.696Z,17.48
2022-11-17T07:07:31.607Z,19.10
2022-11-17T07:09:59.406Z,14.60
2022-11-17T07:12:27.118Z,14.18
2022-11-17T07:14:54.935Z,12.27
2022-11-17T07:17:22.863Z,10.15
2022-11-17T07:19:50.425Z,10.18
2022-11-17T07:22:18.387Z,10.02
2022-11-17T07:24:46.442Z,11.32
2022-11-17T07:27:14.672Z,13.15
2022-11-17T07:29:42.770Z,10.52
2022-11-17T07:32:14.005Z,10.57
2022-11-17T07:34:42.826Z,11.23
2022-11-17T07:37:10.775Z,13.75
2022-11-17T07:39:38.677Z,17.50
2022-11-17T07:42:06.875Z,16.58
2022-11-17T07:44:34.753Z,14.70
2022-11-17T07:47:02.949Z,19.23
2022-11-17T07:49:30.711Z,18.75
2022-11-17T07:51:58.486Z,17.02
2022-11-17T07:54:26.348Z,15.65
2022-11-17T07:56:54.027Z,16.23
2022-11-17T07:59:22.042Z,16.00
2022-11-17T08:01:49.857Z,16.05
2022-11-17T08:04:17.608Z,19.08
2022-11-17T08:06:45.470Z,17.02
2022-11-17T08:09:14.499Z,14.02
2022-11-17T08:11:42.314Z,15.70
2022-11-17T08:14:10.828Z,16.90
2022-11-17T08:16:38.610Z,19.17
2022-11-17T08:19:06.799Z,18.85
2022-11-17T08:21:37.331Z,14.15
2022-11-17T08:24:05.406Z,12.70
2022-11-17T08:26:33.173Z,13.18
2022-11-17T08:29:02.412Z,14.48
2022-11-17T08:31:30.410Z,15.55
2022-11-17T08:33:58.138Z,15.73
2022-11-17T08:36:25.878Z,16.38
2022-11-17T08:38:53.942Z,14.63
2022-11-17T08:41:22.273Z,16.77
2022-11-17T08:43:51.020Z,14.32
2022-11-17T08:46:18.978Z,13.20
2022-11-17T08:48:48.133Z,12.05
2022-11-17T08:51:17.879Z,13.60
2022-11-17T08:53:45.714Z,11.48
2022-11-17T08:56:13.783Z,15.95
2022-11-17T08:58:44.593Z,14.10
2022-11-17T09:01:16.033Z,13.40
2022-11-17T09:03:45.415Z,13.13
2022-11-17T09:06:14.098Z,13.45
2022-11-17T09:08:46.834Z,11.45
2022-11-17T09:11:15.795Z,10.50
2022-11-17T09:13:47.599Z,11.70
2022-11-17T09:16:17.764Z,11.57
2022-11-17T09:18:48.879Z,9.88
2022-11-17T09:21:17.527Z,9.52
2022-11-17T09:23:47.891Z,8.20
2022-11-17T09:26:16.883Z,9.38
2022-11-17T09:28:46.301Z,9.50
2022-11-17T09:31:20.041Z,9.43
2022-11-17T09:33:49.757Z,7.80
2022-11-17T09:36:20.518Z,9.15
2022-11-17T09:38:49.277Z,9.48
2022-11-17T09:41:34.364Z,10.57
2022-11-17T09:44:23.914Z,11.85
2022-11-17T09:47:21.650Z,9.45
2022-11-17T09:50:11.866Z,11.27
2022-11-17T09:53:11.932Z,8.80
2022-11-17T09:55:43.594Z,8.30
2022-11-17T09:58:34.294Z,7.28
2022-11-17T10:01:02.932Z,5.40
2022-11-17T10:03:40.262Z,6.20
2022-11-17T10:06:18.013Z,4.93
2022-11-17T10:09:03.469Z,5.75
2022-11-17T10:11:36.818Z,5.68
2022-11-17T10:14:17.357Z,7.40
2022-11-17T10:16:54.775Z,5.47
2022-11-17T10:19:31.643Z,7.32
2022-11-17T10:22:20.998Z,5.75
2022-11-17T10:24:51.888Z,5.75
2022-11-17T10:27:27.020Z,6.32
2022-11-17T10:30:15.581Z,5.88
2022-11-17T10:32:53.621Z,4.85
2022-11-17T10:35:25.219Z,4.68
2022-11-17T10:38:14.159Z,6.57
2022-11-17T10:40:50.385Z,7.13
2022-11-17T10:43:29.671Z,5.55
2022-11-17T10:46:02.310Z,8.00
2022-11-17T10:48:33.201Z,5.70
2022-11-17T10:51:04.827Z,5.65
2022-11-17T10:53:41.322Z,7.20
2022-11-17T10:56:18.166Z,5.85
2022-11-17T10:59:20.358Z,7.97
2022-11-17T11:01:51.048Z,7.18
2022-11-17T11:04:36.026Z,5.32
2022-11-17T11:07:10.036Z,5.70
2022-11-17T11:09:59.946Z,6.78
2022-11-17T11:12:45.004Z,7.13
2022-11-17T11:15:31.210Z,7.65
2022-11-17T11:17:59.266Z,7.57
2022-11-17T11:20:55.257Z,7.82
2022-11-17T11:23:54.333Z,7.55
2022-11-17T11:26:37.859Z,7.43
2022-11-17T11:29:28.949Z,7.07
2022-11-17T11:32:22.241Z,10.20
2022-11-17T11:35:25.370Z,7.53
2022-11-17T11:38:09.010Z,7.78
2022-11-17T11:40:43.543Z,7.43
2022-11-17T11:43:43.242Z,6.40
2022-11-17T11:46:46.953Z,5.00
2022-11-17T11:49:33.732Z,6.90
2022-11-17T11:52:04.982Z,10.95
2022-11-17T11:54:40.411Z,6.10
2022-11-17T11:57:14.170Z,8.40
2022-11-17T11:59:58.246Z,7.68
2022-11-17T12:02:40.552Z,6.70
2022-11-17T12:05:32.906Z,5.50
2022-11-17T12:08:27.148Z,5.43
2022-11-17T12:11:26.121Z,6.18
2022-11-17T12:13:55.547Z,8.27
2022-11-17T12:16:32.257Z,9.45
2022-11-17T12:19:01.092Z,7.25
2022-11-17T12:21:29.899Z,6.78
2022-11-17T12:24:17.109Z,6.53
2022-11-17T12:26:45.255Z,6.07
2022-11-17T12:29:28.901Z,6.53
2022-11-17T12:31:59.657Z,6.10
2022-11-17T12:34:37.464Z,6.95
2022-11-17T12:37:17.115Z,6.00
2022-11-17T12:40:01.830Z,5.43
2022-11-17T12:42:33.881Z,6.57
2022-11-17T12:45:06.998Z,5.40
2022-11-17T12:47:39.087Z,4.75
2022-11-17T12:50:26.461Z,4.53
2022-11-17T12:53:17.370Z,7.80
2022-11-17T12:56:13.724Z,6.57
2022-11-17T12:59:00.116Z,6.47
2022-11-17T13:01:40.707Z,6.03
2022-11-17T13:04:21.000Z,5.75
2022-11-17T13:07:05.703Z,10.98
2022-11-17T13:09:35.465Z,5.28
2022-11-17T13:12:05.730Z,4.45
2022-11-17T13:14:35.175Z,3.25
2022-11-17T13:17:04.017Z,4.38
2022-11-17T13:19:37.543Z,3.45
2022-11-17T13:22:22.627Z,4.45
2022-11-17T13:24:52.352Z,6.65
2022-11-17T13:27:30.144Z,5.35
2022-11-17T13:30:28.390Z,5.22
2022-11-17T13:32:57.506Z,4.68
2022-11-17T13:35:31.866Z,5.60
2022-11-17T13:38:07.387Z,3.83
2022-11-17T13:40:37.477Z,6.53
2022-11-17T13:43:06.019Z,6.68
2022-11-17T13:45:34.085Z,5.25
2022-11-17T13:48:02.038Z,7.28
2022-11-17T13:50:37.360Z,3.90
2022-11-17T13:53:22.798Z,3.95
2022-11-17T13:55:50.941Z,7.35
2022-11-17T13:58:32.232Z,5.40
2022-11-17T14:01:00.484Z,5.45
2022-11-17T14:03:43.941Z,4.07
2022-11-17T14:06:13.682Z,3.45
2022-11-17T14:08:43.670Z,5.95
2022-11-17T14:11:21.666Z,6.53
2022-11-17T14:13:52.545Z,5.38
2022-11-17T14:16:25.124Z,5.18
2022-11-17T14:21:25.712Z,5.03
2022-11-17T14:24:04.432Z,7.78
2022-11-17T14:26:32.616Z,6.07
2022-11-17T14:29:03.654Z,5.95
2022-11-17T14:31:32.904Z,5.30
2022-11-17T14:34:00.873Z,7.90
2022-11-17T14:36:31.495Z,6.07
2022-11-17T14:39:00.571Z,5.18
2022-11-17T14:41:28.714Z,5.97
2022-11-17T14:43:58.861Z,5.43
2022-11-17T14:46:28.234Z,5.45
2022-11-17T14:48:56.793Z,8.27
2022-11-17T14:51:24.838Z,3.90
2022-11-17T14:53:52.821Z,5.85
2022-11-17T14:56:22.648Z,5.38
2022-11-17T14:58:56.925Z,3.50
2022-11-17T15:01:30.529Z,4.03
2022-11-17T15:04:20.719Z,5.13
2022-11-17T15:06:51.522Z,3.92
2022-11-17T15:09:21.846Z,4.47
2022-11-17T15:11:53.813Z,6.00
2022-11-17T15:14:25.070Z,5.35
2022-11-17T15:16:56.015Z,3.95
2022-11-17T15:19:25.424Z,5.53
2022-11-17T15:21:55.600Z,4.97
2022-11-17T15:24:24.045Z,4.13
2022-11-17T15:26:54.571Z,5.43
2022-11-17T15:29:25.079Z,4.90
2022-11-17T15:31:54.513Z,4.53
2022-11-17T15:34:23.491Z,5.15
2022-11-17T15:36:52.824Z,6.95
2022-11-17T15:39:22.717Z,3.58
2022-11-17T15:41:53.605Z,5.15
2022-11-17T15:44:22.449Z,4.30
2022-11-17T15:46:50.643Z,4.93
2022-11-17T15:49:21.255Z,4.00
2022-11-17T15:51:51.103Z,4.35
2022-11-17T15:54:21.203Z,4.33
2022-11-17T15:56:51.760Z,5.05
2022-11-17T15:59:21.103Z,4.18
2022-11-17T16:01:50.252Z,4.25
2022-11-17T16:04:18.690Z,5.25
2022-11-17T16:06:47.164Z,4.55
2022-11-17T16:09:18.069Z,4.07
2022-11-17T16:11:46.198Z,6.95
2022-11-17T16:14:15.281Z,4.28
2022-11-17T16:16:45.432Z,4.00
2022-11-17T16:19:13.883Z,3.17
2022-11-17T16:21:43.791Z,5.95
2022-11-17T16:24:13.370Z,3.15
2022-11-17T16:26:42.843Z,3.55
2022-11-17T16:29:11.014Z,4.68
2022-11-17T16:31:39.384Z,3.50
2022-11-17T16:34:12.329Z,4.47
2022-11-17T16:36:41.671Z,5.60
2022-11-17T16:39:12.110Z,5.50
2022-11-17T16:41:43.474Z,3.97
2022-11-17T16:44:13.188Z,4.25
2022-11-17T16:46:44.134Z,4.82
2022-11-17T16:49:13.970Z,3.92
2022-11-17T16:51:42.435Z,4.43
2022-11-17T16:54:12.958Z,4.75
2022-11-17T16:56:40.965Z,3.93
2022-11-17T16:59:08.922Z,3.93
2022-11-17T17:01:37.108Z,4.40
2022-11-17T17:04:08.354Z,4.53
2022-11-17T17:06:39.337Z,4.60
2022-11-17T17:09:08.903Z,4.10
2022-11-17T17:11:37.384Z,4.65
2022-11-17T17:14:08.932Z,4.82
2022-11-17T17:16:37.981Z,6.10
2022-11-17T17:19:07.430Z,4.35
2022-11-17T17:21:37.681Z,5.03
2022-11-17T17:24:05.823Z,4.40
2022-11-17T17:26:34.589Z,5.27
2022-11-17T17:29:02.993Z,3.92
2022-11-17T17:31:33.797Z,7.10
2022-11-17T17:34:02.880Z,4.35
2022-11-17T17:36:30.696Z,5.80
2022-11-17T17:39:02.281Z,4.90
2022-11-17T17:41:33.203Z,5.00
2022-11-17T17:44:03.674Z,5.03
2022-11-17T17:46:35.107Z,5.67
2022-11-17T17:49:07.088Z,5.45
2022-11-17T17:51:40.621Z,5.05
2022-11-17T17:54:20.198Z,4.93
2022-11-17T17:56:51.453Z,7.43
2022-11-17T17:59:19.529Z,4.67
2022-11-17T18:01:48.286Z,4.73
2022-11-17T18:04:22.702Z,7.13
2022-11-17T18:06:58.643Z,6.37
2022-11-17T18:09:29.659Z,4.00
2022-11-17T18:11:59.443Z,4.50
2022-11-17T18:14:31.233Z,4.93
2022-11-17T18:17:01.974Z,5.18
2022-11-17T18:19:33.656Z,7.17
2022-11-17T18:22:01.621Z,6.80
2022-11-17T18:24:29.590Z,5.20
2022-11-17T18:26:57.765Z,6.40
2022-11-17T18:29:27.658Z,6.10
2022-11-17T18:31:56.342Z,4.07
2022-11-17T18:34:26.559Z,6.13
2022-11-17T18:36:55.973Z,5.13
2022-11-17T18:39:29.130Z,5.20
2022-11-17T18:41:57.156Z,4.07
2022-11-17T18:44:24.968Z,7.63
2022-11-17T18:46:52.603Z,4.37
2022-11-17T18:49:22.663Z,5.03
2022-11-17T18:51:50.493Z,4.47
2022-11-17T18:54:19.439Z,8.87
2022-11-17T18:56:47.618Z,4.77
2022-11-17T18:59:15.908Z,4.20
2022-11-17T19:01:45.395Z,3.47
2022-11-17T19:04:14.780Z,3.83
2022-11-17T19:06:42.850Z,3.90
2022-11-17T19:09:11.104Z,5.17
2022-11-17T19:11:39.696Z,7.93
2022-11-17T19:14:07.659Z,5.00
2022-11-17T19:16:43.776Z,4.10
2022-11-17T19:19:14.276Z,5.53
2022-11-17T19:21:43.161Z,5.57
2022-11-17T19:24:13.521Z,4.88
2022-11-17T19:26:44.092Z,4.63
2022-11-17T19:29:17.563Z,5.40
2022-11-17T19:31:46.539Z,7.97
2022-11-17T19:34:16.144Z,4.73
2022-11-17T19:36:44.887Z,6.73
2022-11-17T19:39:15.528Z,6.40
2022-11-17T19:41:45.457Z,4.87
2022-11-17T19:44:13.525Z,4.77
2022-11-17T19:46:43.692Z,5.10
2022-11-17T19:49:18.102Z,5.27
2022-11-17T19:51:46.522Z,4.60
2022-11-17T19:54:16.605Z,5.73
2022-11-17T19:56:44.711Z,4.33
2022-11-17T19:59:16.160Z,7.07
2022-11-17T20:04:13.389Z,5.33
2022-11-17T20:06:41.426Z,4.73
2022-11-17T20:09:12.035Z,4.47
2022-11-17T20:11:42.418Z,5.30
2022-11-17T20:14:11.078Z,5.83
2022-11-17T20:16:39.034Z,6.00
2022-11-17T20:19:06.922Z,5.23
2022-11-17T20:21:35.055Z,5.30
2022-11-17T20:24:03.546Z,6.30
2022-11-17T20:26:35.385Z,4.33
2022-11-17T20:29:03.440Z,5.70
2022-11-17T20:31:34.483Z,5.53
2022-11-17T20:34:04.236Z,6.43
2022-11-17T20:36:34.392Z,5.17
2022-11-17T20:39:05.130Z,5.13
2022-11-17T20:41:33.121Z,6.43
2022-11-17T20:44:02.623Z,7.27
2022-11-17T20:46:32.139Z,5.47
2022-11-17T20:49:00.382Z,6.17
2022-11-17T20:51:28.309Z,6.73
2022-11-17T20:53:56.102Z,8.53
2022-11-17T20:56:24.160Z,5.63
2022-11-17T20:58:52.047Z,6.67
2022-11-17T21:01:22.001Z,6.00
2022-11-17T21:03:50.696Z,6.30
2022-11-17T21:06:20.326Z,6.60
2022-11-17T21:08:48.246Z,6.40
2022-11-17T21:11:33.818Z,6.03
2022-11-17T21:14:02.166Z,5.33
2022-11-17T21:16:30.179Z,5.57
2022-11-17T21:18:58.112Z,5.60
2022-11-17T21:21:26.038Z,5.30
2022-11-17T21:23:57.389Z,5.57
2022-11-17T21:26:28.367Z,5.27
2022-11-17T21:28:59.323Z,6.23
2022-11-17T21:31:31.699Z,5.67
2022-11-17T21:34:02.807Z,6.77
2022-11-17T21:36:31.987Z,5.80
2022-11-17T21:39:00.525Z,4.73
2022-11-17T21:41:30.917Z,5.33
2022-11-17T21:44:00.303Z,7.47
2022-11-17T21:46:30.245Z,8.30
2022-11-17T21:48:59.091Z,5.67
2022-11-17T21:51:30.402Z,7.73
2022-11-17T21:53:59.824Z,6.20
2022-11-17T21:56:28.989Z,5.00
2022-11-17T21:58:57.403Z,6.13
2022-11-17T22:01:25.689Z,6.03
2022-11-17T22:03:53.737Z,6.17
2022-11-17T22:06:23.757Z,6.20
2022-11-17T22:08:51.789Z,7.13
2022-11-17T22:11:38.098Z,5.23
2022-11-17T22:14:11.907Z,9.30
2022-11-17T22:16:45.035Z,6.57
2022-11-17T22:19:14.319Z,5.73
2022-11-17T22:21:42.551Z,6.87
2022-11-17T22:24:12.338Z,6.30
2022-11-17T22:26:41.913Z,5.33
2022-11-17T22:29:12.927Z,7.13
2022-11-17T22:31:40.893Z,6.70
2022-11-17T22:34:08.633Z,8.10
2022-11-17T22:36:36.103Z,7.57
2022-11-17T22:39:04.396Z,7.23
2022-11-17T22:41:34.543Z,6.77
2022-11-17T22:44:02.323Z,4.83
2022-11-17T22:46:30.118Z,6.00
2022-11-17T22:48:58.021Z,6.37
2022-11-17T22:51:41.505Z,6.03
2022-11-17T22:54:09.845Z,8.93
2022-11-17T22:56:37.580Z,8.03
2022-11-17T22:59:05.302Z,6.23
2022-11-17T23:01:33.291Z,5.47
2022-11-17T23:04:01.735Z,6.30
2022-11-17T23:06:29.768Z,6.47
2022-11-17T23:08:58.896Z,5.50
2022-11-17T23:11:43.406Z,4.83
2022-11-17T23:14:13.250Z,5.40
2022-11-17T23:16:41.382Z,9.27
2022-11-17T23:19:13.372Z,6.17
2022-11-17T23:21:41.361Z,8.90
2022-11-17T23:24:12.961Z,5.63
2022-11-17T23:26:42.370Z,7.10
2022-11-17T23:29:10.272Z,6.63
2022-11-17T23:31:38.070Z,6.27
2022-11-17T23:34:05.839Z,6.17
2022-11-17T23:36:33.755Z,6.07
2022-11-17T23:39:01.622Z,5.07
2022-11-17T23:41:29.654Z,6.63
2022-11-17T23:43:57.516Z,5.70
2022-11-17T23:46:26.446Z,5.13
2022-11-17T23:48:56.284Z,5.77
2022-11-17T23:51:25.871Z,5.93
2022-11-17T23:53:53.759Z,7.07
2022-11-17T23:56:21.742Z,7.17
2022-11-17T23:58:49.844Z,6.10
